^^
Station Historical Data
Daily Summary for January 31, 2017 Units:  Both    English   Metric
« Previous Day
Next Day »
Daily Weekly Monthly Yearly Custom
  High: Low: Average:
Temperature: 91.0 °F /  32.8 °C 62.2 °F /  16.8 °C 78.5 °F /  25.8 °C
Dew Point: 49.3 °F /  9.6 °C 37.6 °F /  3.1 °C 43 °F /  6.1 °C
Humidity: 62% 18% 31%
Wind Speed: 14.1mph /  22.7km/h - 2.4mph /  3.9km/h
Wind Gust: 15.0mph /  24.1km/h - -
Wind- - SE
Pressure: 29.78 in /  1008.4 hPa 29.65 in /  1003.9 hPa -
Precipitation: 0.00 in /  0 mm    
Historical Graphs
 
 
Tabular Data for January 31, 2017
Time Temperature Dew Point Pressure Wind Wind Speed Wind Gust Humidity Rainfall Rate (Hourly) solar Conditions
00:00 74.1 °F /  23.4 °C 47.7 °F /  8.7 °C 29.76in /  1007.7hPa NE 0.9mph /  1.4km/h 2.0mph /  3.2km/h 39% 0.00in /  0mm 0.0 W/m2
00:06 73.8 °F /  23.2 °C 46.6 °F /  8.1 °C 29.76in /  1007.7hPa Calm   4.0mph /  6.4km/h 38% 0.00in /  0mm 0.0 W/m2
00:12 73.4 °F /  23 °C 45.5 °F /  7.5 °C 29.76in /  1007.7hPa NNE 0.9mph /  1.4km/h 1.0mph /  1.6km/h 37% 0.00in /  0mm 0.0 W/m2
00:18 73.0 °F /  22.8 °C 45.1 °F /  7.3 °C 29.76in /  1007.7hPa Calm   2.0mph /  3.2km/h 37% 0.00in /  0mm 0.0 W/m2
00:24 72.9 °F /  22.7 °C 45.1 °F /  7.3 °C 29.76in /  1007.7hPa NNW 0.9mph /  1.4km/h 3.0mph /  4.8km/h 37% 0.00in /  0mm 0.0 W/m2
00:30 72.5 °F /  22.5 °C 44.8 °F /  7.1 °C 29.76in /  1007.7hPa NW 0.9mph /  1.4km/h 3.0mph /  4.8km/h 37% 0.00in /  0mm 0.0 W/m2
00:37 72.1 °F /  22.3 °C 44.4 °F /  6.9 °C 29.76in /  1007.7hPa Calm   2.0mph /  3.2km/h 37% 0.00in /  0mm 0.0 W/m2
00:43 71.8 °F /  22.1 °C 44.1 °F /  6.7 °C 29.76in /  1007.7hPa NW 0.9mph /  1.4km/h 2.0mph /  3.2km/h 37% 0.00in /  0mm 0.0 W/m2
00:49 71.4 °F /  21.9 °C 44.4 °F /  6.9 °C 29.76in /  1007.7hPa Calm   1.0mph /  1.6km/h 38% 0.00in /  0mm 0.0 W/m2
00:55 71.1 °F /  21.7 °C 44.2 °F /  6.8 °C 29.76in /  1007.7hPa NNE 2.0mph /  3.2km/h 4.0mph /  6.4km/h 38% 0.00in /  0mm 0.0 W/m2
01:01 70.9 °F /  21.6 °C 44.1 °F /  6.7 °C 29.76in /  1007.7hPa NNE 0.9mph /  1.4km/h 4.0mph /  6.4km/h 38% 0.00in /  0mm 0.0 W/m2
01:07 70.5 °F /  21.4 °C 44.4 °F /  6.9 °C 29.76in /  1007.7hPa Calm   1.0mph /  1.6km/h 39% 0.00in /  0mm 0.0 W/m2
01:13 70.3 °F /  21.3 °C 44.2 °F /  6.8 °C 29.76in /  1007.7hPa Calm   3.0mph /  4.8km/h 39% 0.00in /  0mm 0.0 W/m2
01:19 70.2 °F /  21.2 °C 44.1 °F /  6.7 °C 29.76in /  1007.7hPa North 0.9mph /  1.4km/h 1.0mph /  1.6km/h 39% 0.00in /  0mm 0.0 W/m2
01:25 70.0 °F /  21.1 °C 44.6 °F /  7 °C 29.76in /  1007.7hPa Calm   1.0mph /  1.6km/h 40% 0.00in /  0mm 0.0 W/m2
01:32 69.8 °F /  21 °C 44.4 °F /  6.9 °C 29.76in /  1007.7hPa Calm   1.0mph /  1.6km/h 40% 0.00in /  0mm 0.0 W/m2
01:38 69.6 °F /  20.9 °C 44.2 °F /  6.8 °C 29.76in /  1007.7hPa NNE 0.9mph /  1.4km/h 2.0mph /  3.2km/h 40% 0.00in /  0mm 0.0 W/m2
01:44 69.4 °F /  20.8 °C 44.1 °F /  6.7 °C 29.76in /  1007.7hPa Calm   2.0mph /  3.2km/h 40% 0.00in /  0mm 0.0 W/m2
01:50 69.3 °F /  20.7 °C 43.9 °F /  6.6 °C 29.75in /  1007.3hPa Calm   1.0mph /  1.6km/h 40% 0.00in /  0mm 0.0 W/m2
01:56 69.1 °F /  20.6 °C 43.7 °F /  6.5 °C 29.75in /  1007.3hPa Calm   2.0mph /  3.2km/h 40% 0.00in /  0mm 0.0 W/m2
02:02 69.1 °F /  20.6 °C 44.4 °F /  6.9 °C 29.75in /  1007.3hPa Calm   2.0mph /  3.2km/h 41% 0.00in /  0mm 0.0 W/m2
02:08 68.7 °F /  20.4 °C 44.1 °F /  6.7 °C 29.75in /  1007.3hPa NNW 2.9mph /  4.7km/h 3.0mph /  4.8km/h 41% 0.00in /  0mm 0.0 W/m2
02:14 68.7 °F /  20.4 °C 44.1 °F /  6.7 °C 29.75in /  1007.3hPa NNW 0.9mph /  1.4km/h 3.0mph /  4.8km/h 41% 0.00in /  0mm 0.0 W/m2
02:21 68.7 °F /  20.4 °C 44.8 °F /  7.1 °C 29.75in /  1007.3hPa NNW 2.0mph /  3.2km/h 2.0mph /  3.2km/h 42% 0.00in /  0mm 0.0 W/m2
02:27 68.5 °F /  20.3 °C 44.6 °F /  7 °C 29.75in /  1007.3hPa NNW 0.9mph /  1.4km/h 2.0mph /  3.2km/h 42% 0.00in /  0mm 0.0 W/m2
02:33 68.5 °F /  20.3 °C 44.6 °F /  7 °C 29.75in /  1007.3hPa Calm   1.0mph /  1.6km/h 42% 0.00in /  0mm 0.0 W/m2
02:39 68.4 °F /  20.2 °C 44.4 °F /  6.9 °C 29.75in /  1007.3hPa Calm     42% 0.00in /  0mm 0.0 W/m2
02:45 68.4 °F /  20.2 °C 44.4 °F /  6.9 °C 29.75in /  1007.3hPa Calm     42% 0.00in /  0mm 0.0 W/m2
02:51 68.4 °F /  20.2 °C 44.4 °F /  6.9 °C 29.75in /  1007.3hPa Calm   1.0mph /  1.6km/h 42% 0.00in /  0mm 0.0 W/m2
02:57 68.4 °F /  20.2 °C 44.4 °F /  6.9 °C 29.75in /  1007.3hPa Calm   4.0mph /  6.4km/h 42% 0.00in /  0mm 0.0 W/m2
03:03 68.2 °F /  20.1 °C 44.8 °F /  7.1 °C 29.75in /  1007.3hPa Calm   2.0mph /  3.2km/h 43% 0.00in /  0mm 0.0 W/m2
03:09 68.2 °F /  20.1 °C 44.8 °F /  7.1 °C 29.75in /  1007.3hPa Calm   1.0mph /  1.6km/h 43% 0.00in /  0mm 0.0 W/m2
03:15 68.2 °F /  20.1 °C 44.8 °F /  7.1 °C 29.75in /  1007.3hPa Calm     43% 0.00in /  0mm 0.0 W/m2
03:22 68.0 °F /  20 °C 44.6 °F /  7 °C 29.74in /  1007hPa Calm     43% 0.00in /  0mm 0.0 W/m2
03:28 67.8 °F /  19.9 °C 45.1 °F /  7.3 °C 29.74in /  1007hPa Calm   1.0mph /  1.6km/h 44% 0.00in /  0mm 0.0 W/m2
03:34 67.8 °F /  19.9 °C 45.1 °F /  7.3 °C 29.74in /  1007hPa Calm   1.0mph /  1.6km/h 44% 0.00in /  0mm 0.0 W/m2
03:40 67.8 °F /  19.9 °C 45.7 °F /  7.6 °C 29.74in /  1007hPa Calm     45% 0.00in /  0mm 0.0 W/m2
03:46 67.6 °F /  19.8 °C 45.5 °F /  7.5 °C 29.74in /  1007hPa Calm     45% 0.00in /  0mm 0.0 W/m2
03:52 67.6 °F /  19.8 °C 46.0 °F /  7.8 °C 29.74in /  1007hPa Calm     46% 0.00in /  0mm 0.0 W/m2
03:58 67.5 °F /  19.7 °C 46.6 °F /  8.1 °C 29.74in /  1007hPa Calm     47% 0.00in /  0mm 0.0 W/m2
04:04 67.3 °F /  19.6 °C 46.9 °F /  8.3 °C 29.74in /  1007hPa Calm     48% 0.00in /  0mm 0.0 W/m2
04:10 67.3 °F /  19.6 °C 47.5 °F /  8.6 °C 29.74in /  1007hPa Calm     49% 0.00in /  0mm 0.0 W/m2
04:16 67.1 °F /  19.5 °C 47.8 °F /  8.8 °C 29.74in /  1007hPa Calm   1.0mph /  1.6km/h 50% 0.00in /  0mm 0.0 W/m2
04:23 66.9 °F /  19.4 °C 48.2 °F /  9 °C 29.74in /  1007hPa Calm   1.0mph /  1.6km/h 51% 0.00in /  0mm 0.0 W/m2
04:29 66.7 °F /  19.3 °C 47.5 °F /  8.6 °C 29.74in /  1007hPa Calm     50% 0.00in /  0mm 0.0 W/m2
04:35 66.6 °F /  19.2 °C 47.8 °F /  8.8 °C 29.74in /  1007hPa Calm   1.0mph /  1.6km/h 51% 0.00in /  0mm 0.0 W/m2
04:41 66.4 °F /  19.1 °C 47.7 °F /  8.7 °C 29.73in /  1006.7hPa Calm     51% 0.00in /  0mm 0.0 W/m2
04:47 66.2 °F /  19 °C 48.0 °F /  8.9 °C 29.73in /  1006.7hPa Calm     52% 0.00in /  0mm 0.0 W/m2
04:53 65.8 °F /  18.8 °C 47.7 °F /  8.7 °C 29.74in /  1007hPa ENE 0.9mph /  1.4km/h 1.0mph /  1.6km/h 52% 0.00in /  0mm 0.0 W/m2
05:00 65.7 °F /  18.7 °C 48.0 °F /  8.9 °C 29.74in /  1007hPa Calm   1.0mph /  1.6km/h 53% 0.00in /  0mm 0.0 W/m2
05:06 65.5 °F /  18.6 °C 48.9 °F /  9.4 °C 29.74in /  1007hPa East 0.9mph /  1.4km/h 2.0mph /  3.2km/h 55% 0.00in /  0mm 0.0 W/m2
05:12 65.1 °F /  18.4 °C 48.6 °F /  9.2 °C 29.73in /  1006.7hPa Calm     55% 0.00in /  0mm 0.0 W/m2
05:18 64.9 °F /  18.3 °C 48.4 °F /  9.1 °C 29.73in /  1006.7hPa Calm   1.0mph /  1.6km/h 55% 0.00in /  0mm 0.0 W/m2
05:24 64.8 °F /  18.2 °C 48.2 °F /  9 °C 29.73in /  1006.7hPa Calm   1.0mph /  1.6km/h 55% 0.00in /  0mm 0.0 W/m2
05:30 64.6 °F /  18.1 °C 48.0 °F /  8.9 °C 29.73in /  1006.7hPa Calm   1.0mph /  1.6km/h 55% 0.00in /  0mm 0.0 W/m2
05:36 64.2 °F /  17.9 °C 47.7 °F /  8.7 °C 29.73in /  1006.7hPa Calm   1.0mph /  1.6km/h 55% 0.00in /  0mm 0.0 W/m2
05:42 64.2 °F /  17.9 °C 48.2 °F /  9 °C 29.73in /  1006.7hPa Calm   1.0mph /  1.6km/h 56% 0.00in /  0mm 0.0 W/m2
05:48 64.0 °F /  17.8 °C 48.0 °F /  8.9 °C 29.74in /  1007hPa Calm   1.0mph /  1.6km/h 56% 0.00in /  0mm 0.0 W/m2
05:55 63.9 °F /  17.7 °C 47.8 °F /  8.8 °C 29.74in /  1007hPa Calm   1.0mph /  1.6km/h 56% 0.00in /  0mm 0.0 W/m2
06:01 63.7 °F /  17.6 °C 47.7 °F /  8.7 °C 29.74in /  1007hPa Calm   1.0mph /  1.6km/h 56% 0.00in /  0mm 0.0 W/m2
06:07 63.5 °F /  17.5 °C 47.5 °F /  8.6 °C 29.74in /  1007hPa Calm   1.0mph /  1.6km/h 56% 0.00in /  0mm 0.0 W/m2
06:13 63.3 °F /  17.4 °C 47.8 °F /  8.8 °C 29.74in /  1007hPa Calm   1.0mph /  1.6km/h 57% 0.00in /  0mm 0.0 W/m2
06:19 63.1 °F /  17.3 °C 47.1 °F /  8.4 °C 29.74in /  1007hPa Calm   1.0mph /  1.6km/h 56% 0.00in /  0mm 0.0 W/m2
06:25 63.0 °F /  17.2 °C 47.5 °F /  8.6 °C 29.74in /  1007hPa Calm   1.0mph /  1.6km/h 57% 0.00in /  0mm 0.0 W/m2
06:31 63.0 °F /  17.2 °C 48.0 °F /  8.9 °C 29.74in /  1007hPa Calm   1.0mph /  1.6km/h 58% 0.00in /  0mm 0.0 W/m2
06:38 62.8 °F /  17.1 °C 47.8 °F /  8.8 °C 29.75in /  1007.3hPa Calm     58% 0.00in /  0mm 7.0 W/m2
06:44 62.6 °F /  17 °C 47.7 °F /  8.7 °C 29.75in /  1007.3hPa Calm     58% 0.00in /  0mm 9.0 W/m2
06:50 62.4 °F /  16.9 °C 47.8 °F /  8.8 °C 29.75in /  1007.3hPa Calm     59% 0.00in /  0mm 12.0 W/m2
06:56 62.4 °F /  16.9 °C 48.4 °F /  9.1 °C 29.75in /  1007.3hPa Calm     60% 0.00in /  0mm 14.0 W/m2
07:02 62.2 °F /  16.8 °C 46.8 °F /  8.2 °C 29.75in /  1007.3hPa Calm   1.0mph /  1.6km/h 57% 0.00in /  0mm 16.0 W/m2
07:08 62.2 °F /  16.8 °C 47.3 °F /  8.5 °C 29.75in /  1007.3hPa Calm     58% 0.00in /  0mm 18.0 W/m2
07:14 62.4 °F /  16.9 °C 47.8 °F /  8.8 °C 29.75in /  1007.3hPa Calm     59% 0.00in /  0mm 19.0 W/m2
07:20 62.4 °F /  16.9 °C 49.3 °F /  9.6 °C 29.75in /  1007.3hPa Calm     62% 0.00in /  0mm 21.0 W/m2
07:27 62.8 °F /  17.1 °C 49.1 °F /  9.5 °C 29.76in /  1007.7hPa Calm     61% 0.00in /  0mm 23.0 W/m2
07:33 63.0 °F /  17.2 °C 49.3 °F /  9.6 °C 29.76in /  1007.7hPa Calm     61% 0.00in /  0mm 25.0 W/m2
07:39 63.1 °F /  17.3 °C 48.6 °F /  9.2 °C 29.76in /  1007.7hPa Calm   1.0mph /  1.6km/h 59% 0.00in /  0mm 28.0 W/m2
07:45 63.9 °F /  17.7 °C 49.3 °F /  9.6 °C 29.76in /  1007.7hPa Calm     59% 0.00in /  0mm 28.0 W/m2
07:51 64.6 °F /  18.1 °C 47.5 °F /  8.6 °C 29.76in /  1007.7hPa Calm     54% 0.00in /  0mm 276.0 W/m2
07:57 65.5 °F /  18.6 °C 47.5 °F /  8.6 °C 29.76in /  1007.7hPa Calm     52% 0.00in /  0mm 269.0 W/m2
08:03 66.4 °F /  19.1 °C 47.7 °F /  8.7 °C 29.77in /  1008hPa Calm     51% 0.00in /  0mm 332.0 W/m2
08:10 66.9 °F /  19.4 °C 43.7 °F /  6.5 °C 29.77in /  1008hPa NNE 0.9mph /  1.4km/h 1.0mph /  1.6km/h 43% 0.00in /  0mm 357.0 W/m2
08:16 68.4 °F /  20.2 °C 42.4 °F /  5.8 °C 29.77in /  1008hPa ESE 0.9mph /  1.4km/h 7.0mph /  11.3km/h 39% 0.00in /  0mm 383.0 W/m2
08:22 70.3 °F /  21.3 °C 42.1 °F /  5.6 °C 29.77in /  1008hPa Calm   5.0mph /  8km/h 36% 0.00in /  0mm 410.0 W/m2
08:28 72.3 °F /  22.4 °C 41.5 °F /  5.3 °C 29.77in /  1008hPa SE 4.0mph /  6.4km/h 9.0mph /  14.5km/h 33% 0.00in /  0mm 434.0 W/m2
08:34 73.9 °F /  23.3 °C 40.5 °F /  4.7 °C 29.77in /  1008hPa ENE 4.0mph /  6.4km/h 9.0mph /  14.5km/h 30% 0.00in /  0mm 462.0 W/m2
08:40 75.7 °F /  24.3 °C 43.0 °F /  6.1 °C 29.77in /  1008hPa ENE 2.9mph /  4.7km/h 5.0mph /  8km/h 31% 0.00in /  0mm 485.0 W/m2
08:46 76.6 °F /  24.8 °C 41.2 °F /  5.1 °C 29.77in /  1008hPa ESE 6.0mph /  9.7km/h 9.0mph /  14.5km/h 28% 0.00in /  0mm 508.0 W/m2
08:52 77.5 °F /  25.3 °C 41.0 °F /  5 °C 29.78in /  1008.4hPa ENE 0.9mph /  1.4km/h 11.0mph /  17.7km/h 27% 0.00in /  0mm 531.0 W/m2
08:58 78.1 °F /  25.6 °C 40.5 °F /  4.7 °C 29.78in /  1008.4hPa ESE 13.0mph /  20.9km/h 13.0mph /  20.9km/h 26% 0.00in /  0mm 555.0 W/m2
09:05 78.4 °F /  25.8 °C 42.6 °F /  5.9 °C 29.78in /  1008.4hPa East 4.9mph /  7.9km/h 9.0mph /  14.5km/h 28% 0.00in /  0mm 578.0 W/m2
09:11 78.8 °F /  26 °C 41.0 °F /  5 °C 29.78in /  1008.4hPa ENE 4.0mph /  6.4km/h 7.0mph /  11.3km/h 26% 0.00in /  0mm 605.0 W/m2
09:17 79.3 °F /  26.3 °C 41.5 °F /  5.3 °C 29.78in /  1008.4hPa NE 6.0mph /  9.7km/h 9.0mph /  14.5km/h 26% 0.00in /  0mm 626.0 W/m2
09:23 79.9 °F /  26.6 °C 41.0 °F /  5 °C 29.78in /  1008.4hPa SSE 2.9mph /  4.7km/h 9.0mph /  14.5km/h 25% 0.00in /  0mm 647.0 W/m2
09:29 79.9 °F /  26.6 °C 41.9 °F /  5.5 °C 29.78in /  1008.4hPa ESE 2.0mph /  3.2km/h 5.0mph /  8km/h 26% 0.00in /  0mm 670.0 W/m2
09:35 80.1 °F /  26.7 °C 41.0 °F /  5 °C 29.78in /  1008.4hPa ENE 2.0mph /  3.2km/h 8.0mph /  12.9km/h 25% 0.00in /  0mm 689.0 W/m2
09:41 80.2 °F /  26.8 °C 41.2 °F /  5.1 °C 29.78in /  1008.4hPa SSE 4.9mph /  7.9km/h 13.0mph /  20.9km/h 25% 0.00in /  0mm 710.0 W/m2
09:48 80.8 °F /  27.1 °C 41.7 °F /  5.4 °C 29.78in /  1008.4hPa ESE 6.0mph /  9.7km/h 9.0mph /  14.5km/h 25% 0.00in /  0mm 735.0 W/m2
09:54 81.7 °F /  27.6 °C 42.4 °F /  5.8 °C 29.78in /  1008.4hPa ESE 4.9mph /  7.9km/h 10.0mph /  16.1km/h 25% 0.00in /  0mm 754.0 W/m2
10:00 82.0 °F /  27.8 °C 41.7 °F /  5.4 °C 29.78in /  1008.4hPa ESE 4.9mph /  7.9km/h 9.0mph /  14.5km/h 24% 0.00in /  0mm 773.0 W/m2
10:06 82.2 °F /  27.9 °C 40.8 °F /  4.9 °C 29.78in /  1008.4hPa NNE 6.0mph /  9.7km/h 9.0mph /  14.5km/h 23% 0.00in /  0mm 793.0 W/m2
10:12 82.6 °F /  28.1 °C 42.1 °F /  5.6 °C 29.78in /  1008.4hPa ESE 4.9mph /  7.9km/h 10.0mph /  16.1km/h 24% 0.00in /  0mm 809.0 W/m2
10:18 82.8 °F /  28.2 °C 41.2 °F /  5.1 °C 29.78in /  1008.4hPa East 4.9mph /  7.9km/h 7.0mph /  11.3km/h 23% 0.00in /  0mm 830.0 W/m2
10:24 82.9 °F /  28.3 °C 42.4 °F /  5.8 °C 29.78in /  1008.4hPa ESE 8.1mph /  13km/h 10.0mph /  16.1km/h 24% 0.00in /  0mm 846.0 W/m2
10:30 83.3 °F /  28.5 °C 41.7 °F /  5.4 °C 29.77in /  1008hPa NNE 2.9mph /  4.7km/h 6.0mph /  9.7km/h 23% 0.00in /  0mm 863.0 W/m2
10:37 83.5 °F /  28.6 °C 40.6 °F /  4.8 °C 29.77in /  1008hPa ESE 0.9mph /  1.4km/h 11.0mph /  17.7km/h 22% 0.00in /  0mm 877.0 W/m2
10:43 83.8 °F /  28.8 °C 42.1 °F /  5.6 °C 29.77in /  1008hPa ENE 2.0mph /  3.2km/h 10.0mph /  16.1km/h 23% 0.00in /  0mm 898.0 W/m2
10:49 84.4 °F /  29.1 °C 41.4 °F /  5.2 °C 29.77in /  1008hPa ENE 4.9mph /  7.9km/h 8.0mph /  12.9km/h 22% 0.00in /  0mm 911.0 W/m2
10:55 84.9 °F /  29.4 °C 41.9 °F /  5.5 °C 29.77in /  1008hPa NNE 6.9mph /  11.1km/h 9.0mph /  14.5km/h 22% 0.00in /  0mm 926.0 W/m2
11:03 85.1 °F /  29.5 °C 41.9 °F /  5.5 °C 29.77in /  1008hPa East 4.0mph /  6.4km/h 15.0mph /  24.1km/h 22% 0.00in /  0mm 944.0 W/m2
11:09 85.1 °F /  29.5 °C 40.8 °F /  4.9 °C 29.77in /  1008hPa NE 10.1mph /  16.3km/h 13.0mph /  20.9km/h 21% 0.00in /  0mm 956.0 W/m2
11:15 84.9 °F /  29.4 °C 40.6 °F /  4.8 °C 29.76in /  1007.7hPa NNE 4.0mph /  6.4km/h 10.0mph /  16.1km/h 21% 0.00in /  0mm 970.0 W/m2
11:22 85.6 °F /  29.8 °C 41.2 °F /  5.1 °C 29.76in /  1007.7hPa East 4.9mph /  7.9km/h 12.0mph /  19.3km/h 21% 0.00in /  0mm 984.0 W/m2
11:28 85.8 °F /  29.9 °C 41.4 °F /  5.2 °C 29.77in /  1008hPa East 6.0mph /  9.7km/h 13.0mph /  20.9km/h 21% 0.00in /  0mm 995.0 W/m2
11:34 85.6 °F /  29.8 °C 42.4 °F /  5.8 °C 29.76in /  1007.7hPa NE 6.9mph /  11.1km/h 8.0mph /  12.9km/h 22% 0.00in /  0mm 1002.0 W/m2
11:40 85.8 °F /  29.9 °C 42.6 °F /  5.9 °C 29.76in /  1007.7hPa ESE 2.0mph /  3.2km/h 8.0mph /  12.9km/h 22% 0.00in /  0mm 1013.0 W/m2
11:46 86.0 °F /  30 °C 41.5 °F /  5.3 °C 29.76in /  1007.7hPa ESE 0.9mph /  1.4km/h 8.0mph /  12.9km/h 21% 0.00in /  0mm 1023.0 W/m2
11:52 86.2 °F /  30.1 °C 41.7 °F /  5.4 °C 29.76in /  1007.7hPa ESE 4.9mph /  7.9km/h 11.0mph /  17.7km/h 21% 0.00in /  0mm 1034.0 W/m2
11:58 86.5 °F /  30.3 °C 41.9 °F /  5.5 °C 29.76in /  1007.7hPa East 2.0mph /  3.2km/h 7.0mph /  11.3km/h 21% 0.00in /  0mm 1034.0 W/m2
12:04 86.7 °F /  30.4 °C 43.3 °F /  6.3 °C 29.76in /  1007.7hPa NE 4.0mph /  6.4km/h 13.0mph /  20.9km/h 22% 0.00in /  0mm 1044.0 W/m2
12:11 87.1 °F /  30.6 °C 42.4 °F /  5.8 °C 29.75in /  1007.3hPa East 4.0mph /  6.4km/h 4.0mph /  6.4km/h 21% 0.00in /  0mm 1051.0 W/m2
12:19 87.3 °F /  30.7 °C 41.4 °F /  5.2 °C 29.76in /  1007.7hPa ESE 2.9mph /  4.7km/h 13.0mph /  20.9km/h 20% 0.00in /  0mm 1060.0 W/m2
12:25 87.3 °F /  30.7 °C 41.4 °F /  5.2 °C 29.75in /  1007.3hPa SE 2.9mph /  4.7km/h 10.0mph /  16.1km/h 20% 0.00in /  0mm 1062.0 W/m2
12:31 87.3 °F /  30.7 °C 41.4 °F /  5.2 °C 29.75in /  1007.3hPa NE 4.9mph /  7.9km/h 15.0mph /  24.1km/h 20% 0.00in /  0mm 1067.0 W/m2
12:37 87.3 °F /  30.7 °C 41.4 °F /  5.2 °C 29.75in /  1007.3hPa East 0.9mph /  1.4km/h 7.0mph /  11.3km/h 20% 0.00in /  0mm 1071.0 W/m2
12:44 87.8 °F /  31 °C 43.0 °F /  6.1 °C 29.75in /  1007.3hPa SE 4.0mph /  6.4km/h 7.0mph /  11.3km/h 21% 0.00in /  0mm 1072.0 W/m2
12:49 87.6 °F /  30.9 °C 42.8 °F /  6 °C 29.74in /  1007hPa Calm   11.0mph /  17.7km/h 21% 0.00in /  0mm 1078.0 W/m2
12:56 88.2 °F /  31.2 °C 42.1 °F /  5.6 °C 29.74in /  1007hPa NNW 2.9mph /  4.7km/h 7.0mph /  11.3km/h 20% 0.00in /  0mm 1078.0 W/m2
13:02 89.1 °F /  31.7 °C 41.4 °F /  5.2 °C 29.74in /  1007hPa NNE 2.0mph /  3.2km/h 8.0mph /  12.9km/h 19% 0.00in /  0mm 1083.0 W/m2
13:08 89.8 °F /  32.1 °C 42.1 °F /  5.6 °C 29.74in /  1007hPa NNE 4.0mph /  6.4km/h 6.0mph /  9.7km/h 19% 0.00in /  0mm 1079.0 W/m2
13:14 90.0 °F /  32.2 °C 42.3 °F /  5.7 °C 29.73in /  1006.7hPa NNE 2.9mph /  4.7km/h 7.0mph /  11.3km/h 19% 0.00in /  0mm 1118.0 W/m2
13:20 89.4 °F /  31.9 °C 43.0 °F /  6.1 °C 29.74in /  1007hPa ESE 4.0mph /  6.4km/h 8.0mph /  12.9km/h 20% 0.00in /  0mm 1118.0 W/m2
13:26 89.1 °F /  31.7 °C 41.4 °F /  5.2 °C 29.73in /  1006.7hPa East 14.1mph /  22.7km/h 14.1mph /  22.7km/h 19% 0.00in /  0mm 1099.0 W/m2
13:32 88.2 °F /  31.2 °C 42.1 °F /  5.6 °C 29.72in /  1006.3hPa North 4.0mph /  6.4km/h 6.0mph /  9.7km/h 20% 0.00in /  0mm 1085.0 W/m2
13:39 88.9 °F /  31.6 °C 41.4 °F /  5.2 °C 29.72in /  1006.3hPa North 4.0mph /  6.4km/h 6.0mph /  9.7km/h 19% 0.00in /  0mm 1099.0 W/m2
13:45 89.2 °F /  31.8 °C 41.5 °F /  5.3 °C 29.72in /  1006.3hPa SSE 0.9mph /  1.4km/h 3.0mph /  4.8km/h 19% 0.00in /  0mm 1085.0 W/m2
13:51 89.6 °F /  32 °C 40.5 °F /  4.7 °C 29.72in /  1006.3hPa South 6.0mph /  9.7km/h 10.0mph /  16.1km/h 18% 0.00in /  0mm 1106.0 W/m2
13:57 89.4 °F /  31.9 °C 41.7 °F /  5.4 °C 29.72in /  1006.3hPa East 2.9mph /  4.7km/h 9.0mph /  14.5km/h 19% 0.00in /  0mm 1123.0 W/m2
14:03 89.1 °F /  31.7 °C 41.4 °F /  5.2 °C 29.71in /  1006hPa SE 8.1mph /  13km/h 8.1mph /  13km/h 19% 0.00in /  0mm 1083.0 W/m2
14:09 89.2 °F /  31.8 °C 41.5 °F /  5.3 °C 29.71in /  1006hPa SSE 0.9mph /  1.4km/h 10.0mph /  16.1km/h 19% 0.00in /  0mm 1046.0 W/m2
14:15 89.8 °F /  32.1 °C 43.3 °F /  6.3 °C 29.71in /  1006hPa SSW 2.0mph /  3.2km/h 9.0mph /  14.5km/h 20% 0.00in /  0mm 1042.0 W/m2
14:21 89.8 °F /  32.1 °C 42.1 °F /  5.6 °C 29.70in /  1005.6hPa East 2.0mph /  3.2km/h 4.0mph /  6.4km/h 19% 0.00in /  0mm 1055.0 W/m2
14:28 89.4 °F /  31.9 °C 41.7 °F /  5.4 °C 29.70in /  1005.6hPa NE 4.9mph /  7.9km/h 9.0mph /  14.5km/h 19% 0.00in /  0mm 1042.0 W/m2
14:34 89.4 °F /  31.9 °C 43.0 °F /  6.1 °C 29.70in /  1005.6hPa NE 6.0mph /  9.7km/h 7.0mph /  11.3km/h 20% 0.00in /  0mm 1046.0 W/m2
14:40 89.2 °F /  31.8 °C 41.5 °F /  5.3 °C 29.70in /  1005.6hPa SE 2.9mph /  4.7km/h 9.0mph /  14.5km/h 19% 0.00in /  0mm 991.0 W/m2
14:46 89.4 °F /  31.9 °C 43.0 °F /  6.1 °C 29.69in /  1005.3hPa SE 6.0mph /  9.7km/h 6.0mph /  9.7km/h 20% 0.00in /  0mm 972.0 W/m2
14:52 90.0 °F /  32.2 °C 40.8 °F /  4.9 °C 29.70in /  1005.6hPa ESE 2.9mph /  4.7km/h 6.0mph /  9.7km/h 18% 0.00in /  0mm 960.0 W/m2
14:58 90.3 °F /  32.4 °C 41.0 °F /  5 °C 29.68in /  1005hPa NNE 2.0mph /  3.2km/h 4.0mph /  6.4km/h 18% 0.00in /  0mm 954.0 W/m2
15:05 90.7 °F /  32.6 °C 41.4 °F /  5.2 °C 29.69in /  1005.3hPa SW 8.1mph /  13km/h 10.0mph /  16.1km/h 18% 0.00in /  0mm 944.0 W/m2
15:11 90.9 °F /  32.7 °C 41.5 °F /  5.3 °C 29.69in /  1005.3hPa SSW 2.0mph /  3.2km/h 9.0mph /  14.5km/h 18% 0.00in /  0mm 926.0 W/m2
15:17 91.0 °F /  32.8 °C 41.7 °F /  5.4 °C 29.68in /  1005hPa SSW 2.9mph /  4.7km/h 5.0mph /  8km/h 18% 0.00in /  0mm 921.0 W/m2
15:23 89.8 °F /  32.1 °C 42.1 °F /  5.6 °C 29.68in /  1005hPa SSW 2.0mph /  3.2km/h 8.0mph /  12.9km/h 19% 0.00in /  0mm 907.0 W/m2
15:29 89.6 °F /  32 °C 40.5 °F /  4.7 °C 29.68in /  1005hPa ENE 2.9mph /  4.7km/h 10.0mph /  16.1km/h 18% 0.00in /  0mm 888.0 W/m2
15:35 89.8 °F /  32.1 °C 42.1 °F /  5.6 °C 29.67in /  1004.6hPa SSW 6.0mph /  9.7km/h 10.0mph /  16.1km/h 19% 0.00in /  0mm 905.0 W/m2
15:41 89.6 °F /  32 °C 41.9 °F /  5.5 °C 29.67in /  1004.6hPa SSE 6.0mph /  9.7km/h 10.0mph /  16.1km/h 19% 0.00in /  0mm 909.0 W/m2
15:47 90.0 °F /  32.2 °C 42.3 °F /  5.7 °C 29.67in /  1004.6hPa WSW 2.0mph /  3.2km/h 12.0mph /  19.3km/h 19% 0.00in /  0mm 874.0 W/m2
15:53 89.8 °F /  32.1 °C 43.3 °F /  6.3 °C 29.67in /  1004.6hPa ESE 0.9mph /  1.4km/h 10.0mph /  16.1km/h 20% 0.00in /  0mm 854.0 W/m2
15:59 90.0 °F /  32.2 °C 43.5 °F /  6.4 °C 29.66in /  1004.3hPa SSW 0.9mph /  1.4km/h 4.0mph /  6.4km/h 20% 0.00in /  0mm 833.0 W/m2
16:05 89.4 °F /  31.9 °C 41.7 °F /  5.4 °C 29.66in /  1004.3hPa South 2.0mph /  3.2km/h 6.0mph /  9.7km/h 19% 0.00in /  0mm 810.0 W/m2
16:11 90.0 °F /  32.2 °C 43.5 °F /  6.4 °C 29.66in /  1004.3hPa SE 2.9mph /  4.7km/h 5.0mph /  8km/h 20% 0.00in /  0mm 803.0 W/m2
16:17 90.1 °F /  32.3 °C 42.3 °F /  5.7 °C 29.66in /  1004.3hPa SE 0.9mph /  1.4km/h 8.0mph /  12.9km/h 19% 0.00in /  0mm 802.0 W/m2
16:23 90.3 °F /  32.4 °C 42.4 °F /  5.8 °C 29.66in /  1004.3hPa South 2.0mph /  3.2km/h 8.0mph /  12.9km/h 19% 0.00in /  0mm 763.0 W/m2
16:29 90.1 °F /  32.3 °C 43.7 °F /  6.5 °C 29.65in /  1003.9hPa WSW 4.0mph /  6.4km/h 10.0mph /  16.1km/h 20% 0.00in /  0mm 728.0 W/m2
16:35 89.8 °F /  32.1 °C 43.3 °F /  6.3 °C 29.65in /  1003.9hPa Calm   11.0mph /  17.7km/h 20% 0.00in /  0mm 691.0 W/m2
16:41 90.0 °F /  32.2 °C 42.3 °F /  5.7 °C 29.65in /  1003.9hPa ESE 0.9mph /  1.4km/h 8.0mph /  12.9km/h 19% 0.00in /  0mm 663.0 W/m2
16:47 90.1 °F /  32.3 °C 42.3 °F /  5.7 °C 29.65in /  1003.9hPa SSE 2.9mph /  4.7km/h 5.0mph /  8km/h 19% 0.00in /  0mm 635.0 W/m2
16:53 90.3 °F /  32.4 °C 42.4 °F /  5.8 °C 29.65in /  1003.9hPa SE 6.9mph /  11.1km/h 10.0mph /  16.1km/h 19% 0.00in /  0mm 617.0 W/m2
16:59 90.9 °F /  32.7 °C 41.5 °F /  5.3 °C 29.65in /  1003.9hPa WSW 2.9mph /  4.7km/h 5.0mph /  8km/h 18% 0.00in /  0mm 603.0 W/m2
17:05 90.3 °F /  32.4 °C 42.4 °F /  5.8 °C 29.65in /  1003.9hPa SSW 2.9mph /  4.7km/h 10.0mph /  16.1km/h 19% 0.00in /  0mm 575.0 W/m2
17:11 90.1 °F /  32.3 °C 42.3 °F /  5.7 °C 29.65in /  1003.9hPa SSE 4.9mph /  7.9km/h 5.0mph /  8km/h 19% 0.00in /  0mm 557.0 W/m2
17:17 90.0 °F /  32.2 °C 42.3 °F /  5.7 °C 29.65in /  1003.9hPa ESE 2.0mph /  3.2km/h 8.0mph /  12.9km/h 19% 0.00in /  0mm 538.0 W/m2
17:23 89.8 °F /  32.1 °C 42.1 °F /  5.6 °C 29.65in /  1003.9hPa ESE 4.0mph /  6.4km/h 5.0mph /  8km/h 19% 0.00in /  0mm 510.0 W/m2
17:29 89.4 °F /  31.9 °C 41.7 °F /  5.4 °C 29.65in /  1003.9hPa South 6.0mph /  9.7km/h 11.0mph /  17.7km/h 19% 0.00in /  0mm 494.0 W/m2
17:35 89.2 °F /  31.8 °C 41.5 °F /  5.3 °C 29.65in /  1003.9hPa SW 6.0mph /  9.7km/h 7.0mph /  11.3km/h 19% 0.00in /  0mm 487.0 W/m2
17:41 89.4 °F /  31.9 °C 41.7 °F /  5.4 °C 29.65in /  1003.9hPa ESE 0.9mph /  1.4km/h 6.0mph /  9.7km/h 19% 0.00in /  0mm 464.0 W/m2
17:47 89.8 °F /  32.1 °C 42.1 °F /  5.6 °C 29.65in /  1003.9hPa SW 2.0mph /  3.2km/h 8.0mph /  12.9km/h 19% 0.00in /  0mm 436.0 W/m2
17:53 89.8 °F /  32.1 °C 42.1 °F /  5.6 °C 29.65in /  1003.9hPa SSE 6.9mph /  11.1km/h 9.0mph /  14.5km/h 19% 0.00in /  0mm 411.0 W/m2
17:59 89.8 °F /  32.1 °C 42.1 °F /  5.6 °C 29.65in /  1003.9hPa SSE 2.9mph /  4.7km/h 10.0mph /  16.1km/h 19% 0.00in /  0mm 387.0 W/m2
18:05 90.0 °F /  32.2 °C 42.3 °F /  5.7 °C 29.65in /  1003.9hPa South 2.9mph /  4.7km/h 6.0mph /  9.7km/h 19% 0.00in /  0mm 364.0 W/m2
18:11 90.0 °F /  32.2 °C 42.3 °F /  5.7 °C 29.65in /  1003.9hPa SW 6.0mph /  9.7km/h 8.0mph /  12.9km/h 19% 0.00in /  0mm 327.0 W/m2
18:17 89.4 °F /  31.9 °C 41.7 °F /  5.4 °C 29.65in /  1003.9hPa SSE 8.1mph /  13km/h 8.1mph /  13km/h 19% 0.00in /  0mm 308.0 W/m2
18:23 88.9 °F /  31.6 °C 42.6 °F /  5.9 °C 29.65in /  1003.9hPa SSW 2.9mph /  4.7km/h 9.0mph /  14.5km/h 20% 0.00in /  0mm 281.0 W/m2
18:29 88.9 °F /  31.6 °C 42.6 °F /  5.9 °C 29.65in /  1003.9hPa South 4.9mph /  7.9km/h 7.0mph /  11.3km/h 20% 0.00in /  0mm 250.0 W/m2
18:35 88.7 °F /  31.5 °C 42.4 °F /  5.8 °C 29.65in /  1003.9hPa SSE 2.0mph /  3.2km/h 8.0mph /  12.9km/h 20% 0.00in /  0mm 216.0 W/m2
18:41 88.9 °F /  31.6 °C 43.9 °F /  6.6 °C 29.65in /  1003.9hPa SSW 6.9mph /  11.1km/h 8.0mph /  12.9km/h 21% 0.00in /  0mm 185.0 W/m2
18:47 88.5 °F /  31.4 °C 43.5 °F /  6.4 °C 29.66in /  1004.3hPa Calm   7.0mph /  11.3km/h 21% 0.00in /  0mm 153.0 W/m2
18:53 88.2 °F /  31.2 °C 43.3 °F /  6.3 °C 29.66in /  1004.3hPa SSW 0.9mph /  1.4km/h 5.0mph /  8km/h 21% 0.00in /  0mm 93.0 W/m2
18:59 88.0 °F /  31.1 °C 43.2 °F /  6.2 °C 29.65in /  1003.9hPa SSW 6.9mph /  11.1km/h 7.0mph /  11.3km/h 21% 0.00in /  0mm 32.0 W/m2
19:05 87.3 °F /  30.7 °C 42.6 °F /  5.9 °C 29.65in /  1003.9hPa SE 2.0mph /  3.2km/h 11.0mph /  17.7km/h 21% 0.00in /  0mm 21.0 W/m2
19:11 86.4 °F /  30.2 °C 41.9 °F /  5.5 °C 29.65in /  1003.9hPa South 8.1mph /  13km/h 9.0mph /  14.5km/h 21% 0.00in /  0mm 21.0 W/m2
19:17 85.6 °F /  29.8 °C 41.2 °F /  5.1 °C 29.66in /  1004.3hPa ESE 4.0mph /  6.4km/h 8.0mph /  12.9km/h 21% 0.00in /  0mm 12.0 W/m2
19:23 84.9 °F /  29.4 °C 40.6 °F /  4.8 °C 29.66in /  1004.3hPa ESE 2.9mph /  4.7km/h 9.0mph /  14.5km/h 21% 0.00in /  0mm 11.0 W/m2
19:29 84.6 °F /  29.2 °C 40.3 °F /  4.6 °C 29.66in /  1004.3hPa ESE 2.9mph /  4.7km/h 8.0mph /  12.9km/h 21% 0.00in /  0mm 9.0 W/m2
19:35 84.0 °F /  28.9 °C 41.0 °F /  5 °C 29.66in /  1004.3hPa SE 2.0mph /  3.2km/h 4.0mph /  6.4km/h 22% 0.00in /  0mm 5.0 W/m2
19:41 83.8 °F /  28.8 °C 41.0 °F /  5 °C 29.67in /  1004.6hPa SE 2.9mph /  4.7km/h 10.0mph /  16.1km/h 22% 0.00in /  0mm 0.0 W/m2
19:47 83.3 °F /  28.5 °C 41.7 °F /  5.4 °C 29.67in /  1004.6hPa ESE 6.9mph /  11.1km/h 8.0mph /  12.9km/h 23% 0.00in /  0mm 0.0 W/m2
19:53 82.9 °F /  28.3 °C 41.4 °F /  5.2 °C 29.67in /  1004.6hPa Calm   8.0mph /  12.9km/h 23% 0.00in /  0mm 0.0 W/m2
19:59 82.6 °F /  28.1 °C 41.0 °F /  5 °C 29.67in /  1004.6hPa SE 4.9mph /  7.9km/h 6.0mph /  9.7km/h 23% 0.00in /  0mm 0.0 W/m2
20:05 82.2 °F /  27.9 °C 41.9 °F /  5.5 °C 29.68in /  1005hPa ESE 4.0mph /  6.4km/h 5.0mph /  8km/h 24% 0.00in /  0mm 0.0 W/m2
20:11 82.0 °F /  27.8 °C 41.7 °F /  5.4 °C 29.68in /  1005hPa ESE 2.9mph /  4.7km/h 7.0mph /  11.3km/h 24% 0.00in /  0mm 0.0 W/m2
20:17 81.9 °F /  27.7 °C 41.5 °F /  5.3 °C 29.68in /  1005hPa East 0.9mph /  1.4km/h 7.0mph /  11.3km/h 24% 0.00in /  0mm 0.0 W/m2
20:23 81.7 °F /  27.6 °C 40.3 °F /  4.6 °C 29.68in /  1005hPa SE 4.9mph /  7.9km/h 6.0mph /  9.7km/h 23% 0.00in /  0mm 0.0 W/m2
20:29 81.5 °F /  27.5 °C 40.1 °F /  4.5 °C 29.69in /  1005.3hPa SE 2.9mph /  4.7km/h 10.0mph /  16.1km/h 23% 0.00in /  0mm 0.0 W/m2
20:35 81.3 °F /  27.4 °C 39.9 °F /  4.4 °C 29.69in /  1005.3hPa ESE 8.9mph /  14.3km/h 11.0mph /  17.7km/h 23% 0.00in /  0mm 0.0 W/m2
20:41 81.3 °F /  27.4 °C 39.9 °F /  4.4 °C 29.69in /  1005.3hPa SE 6.0mph /  9.7km/h 9.0mph /  14.5km/h 23% 0.00in /  0mm 0.0 W/m2
20:47 81.1 °F /  27.3 °C 39.7 °F /  4.3 °C 29.69in /  1005.3hPa ESE 2.0mph /  3.2km/h 8.0mph /  12.9km/h 23% 0.00in /  0mm 0.0 W/m2
20:53 81.1 °F /  27.3 °C 39.7 °F /  4.3 °C 29.69in /  1005.3hPa ESE 6.0mph /  9.7km/h 6.0mph /  9.7km/h 23% 0.00in /  0mm 0.0 W/m2
20:59 81.0 °F /  27.2 °C 38.5 °F /  3.6 °C 29.69in /  1005.3hPa ESE 4.0mph /  6.4km/h 8.0mph /  12.9km/h 22% 0.00in /  0mm 0.0 W/m2
21:05 80.8 °F /  27.1 °C 38.5 °F /  3.6 °C 29.69in /  1005.3hPa East 2.0mph /  3.2km/h 6.0mph /  9.7km/h 22% 0.00in /  0mm 0.0 W/m2
21:11 80.4 °F /  26.9 °C 38.1 °F /  3.4 °C 29.69in /  1005.3hPa SE 2.0mph /  3.2km/h 8.0mph /  12.9km/h 22% 0.00in /  0mm 0.0 W/m2
21:17 80.2 °F /  26.8 °C 37.9 °F /  3.3 °C 29.69in /  1005.3hPa SE 0.9mph /  1.4km/h 5.0mph /  8km/h 22% 0.00in /  0mm 0.0 W/m2
21:23 80.1 °F /  26.7 °C 37.8 °F /  3.2 °C 29.69in /  1005.3hPa SSE 6.0mph /  9.7km/h 6.0mph /  9.7km/h 22% 0.00in /  0mm 0.0 W/m2
21:29 80.1 °F /  26.7 °C 37.8 °F /  3.2 °C 29.69in /  1005.3hPa SE 4.0mph /  6.4km/h 4.0mph /  6.4km/h 22% 0.00in /  0mm 0.0 W/m2
21:35 80.1 °F /  26.7 °C 37.8 °F /  3.2 °C 29.69in /  1005.3hPa SE 2.9mph /  4.7km/h 6.0mph /  9.7km/h 22% 0.00in /  0mm 0.0 W/m2
21:41 79.9 °F /  26.6 °C 37.6 °F /  3.1 °C 29.69in /  1005.3hPa ESE 6.0mph /  9.7km/h 8.0mph /  12.9km/h 22% 0.00in /  0mm 0.0 W/m2
21:47 79.9 °F /  26.6 °C 38.8 °F /  3.8 °C 29.69in /  1005.3hPa ESE 4.0mph /  6.4km/h 4.0mph /  6.4km/h 23% 0.00in /  0mm 0.0 W/m2
21:53 79.7 °F /  26.5 °C 39.7 °F /  4.3 °C 29.69in /  1005.3hPa ESE 0.9mph /  1.4km/h 5.0mph /  8km/h 24% 0.00in /  0mm 0.0 W/m2
21:59 79.5 °F /  26.4 °C 39.6 °F /  4.2 °C 29.69in /  1005.3hPa East 2.9mph /  4.7km/h 6.0mph /  9.7km/h 24% 0.00in /  0mm 0.0 W/m2
22:05 79.3 °F /  26.3 °C 39.4 °F /  4.1 °C 29.70in /  1005.6hPa SE 2.0mph /  3.2km/h 4.0mph /  6.4km/h 24% 0.00in /  0mm 0.0 W/m2
22:11 79.2 °F /  26.2 °C 39.2 °F /  4 °C 29.70in /  1005.6hPa South 0.9mph /  1.4km/h 5.0mph /  8km/h 24% 0.00in /  0mm 0.0 W/m2
22:17 79.2 °F /  26.2 °C 40.3 °F /  4.6 °C 29.70in /  1005.6hPa SE 2.9mph /  4.7km/h 5.0mph /  8km/h 25% 0.00in /  0mm 0.0 W/m2
22:23 79.0 °F /  26.1 °C 40.1 °F /  4.5 °C 29.69in /  1005.3hPa SE 6.0mph /  9.7km/h 6.0mph /  9.7km/h 25% 0.00in /  0mm 0.0 W/m2
22:29 78.8 °F /  26 °C 39.0 °F /  3.9 °C 29.69in /  1005.3hPa ESE 2.0mph /  3.2km/h 5.0mph /  8km/h 24% 0.00in /  0mm 0.0 W/m2
22:35 79.0 °F /  26.1 °C 39.2 °F /  4 °C 29.70in /  1005.6hPa Calm   4.0mph /  6.4km/h 24% 0.00in /  0mm 0.0 W/m2
22:41 78.6 °F /  25.9 °C 38.8 °F /  3.8 °C 29.70in /  1005.6hPa SE 2.0mph /  3.2km/h 4.0mph /  6.4km/h 24% 0.00in /  0mm 0.0 W/m2
22:47 78.6 °F /  25.9 °C 38.8 °F /  3.8 °C 29.70in /  1005.6hPa SE 2.0mph /  3.2km/h 3.0mph /  4.8km/h 24% 0.00in /  0mm 0.0 W/m2
22:53 78.3 °F /  25.7 °C 39.6 °F /  4.2 °C 29.70in /  1005.6hPa East 0.9mph /  1.4km/h 3.0mph /  4.8km/h 25% 0.00in /  0mm 0.0 W/m2
22:59 78.1 °F /  25.6 °C 39.4 °F /  4.1 °C 29.70in /  1005.6hPa SE 2.0mph /  3.2km/h 3.0mph /  4.8km/h 25% 0.00in /  0mm 0.0 W/m2
23:05 77.5 °F /  25.3 °C 39.0 °F /  3.9 °C 29.70in /  1005.6hPa SE 0.9mph /  1.4km/h 3.0mph /  4.8km/h 25% 0.00in /  0mm 0.0 W/m2
23:11 77.4 °F /  25.2 °C 39.7 °F /  4.3 °C 29.70in /  1005.6hPa ESE 0.9mph /  1.4km/h 4.0mph /  6.4km/h 26% 0.00in /  0mm 0.0 W/m2
23:17 77.0 °F /  25 °C 39.6 °F /  4.2 °C 29.70in /  1005.6hPa East 2.0mph /  3.2km/h 3.0mph /  4.8km/h 26% 0.00in /  0mm 0.0 W/m2
23:23 76.6 °F /  24.8 °C 39.2 °F /  4 °C 29.70in /  1005.6hPa ESE 0.9mph /  1.4km/h 5.0mph /  8km/h 26% 0.00in /  0mm 0.0 W/m2
23:30 76.5 °F /  24.7 °C 39.0 °F /  3.9 °C 29.70in /  1005.6hPa Calm   4.0mph /  6.4km/h 26% 0.00in /  0mm 0.0 W/m2
23:36 76.3 °F /  24.6 °C 38.8 °F /  3.8 °C 29.70in /  1005.6hPa Calm   3.0mph /  4.8km/h 26% 0.00in /  0mm 0.0 W/m2
23:42 76.3 °F /  24.6 °C 38.8 °F /  3.8 °C 29.70in /  1005.6hPa SE 2.9mph /  4.7km/h 4.0mph /  6.4km/h 26% 0.00in /  0mm 0.0 W/m2
23:48 75.9 °F /  24.4 °C 38.7 °F /  3.7 °C 29.70in /  1005.6hPa SE 0.9mph /  1.4km/h 6.0mph /  9.7km/h 26% 0.00in /  0mm 0.0 W/m2
23:54 75.9 °F /  24.4 °C 38.7 °F /  3.7 °C 29.70in /  1005.6hPa ESE 2.9mph /  4.7km/h 4.0mph /  6.4km/h 26% 0.00in /  0mm 0.0 W/m2
Olympia, Windhoek, Namibia
Compliments of Weather Underground - 3 mb